sensor_id;sensor_type;location;lat;lon;timestamp;pressure;altitude;pressure_sealevel;temperature;humidity
4024;BME280;2026;51.002;13.668;2023-02-28T00:02:39;100321.03;;;0.59;85.43
4024;BME280;2026;51.002;13.668;2023-02-28T00:07:43;100313.13;;;0.49;85.89
4024;BME280;2026;51.002;13.668;2023-02-28T00:12:47;100318.78;;;0.66;85.01
4024;BME280;2026;51.002;13.668;2023-02-28T00:17:50;100318.06;;;0.52;84.91
4024;BME280;2026;51.002;13.668;2023-02-28T00:22:53;100318.19;;;0.62;85.15
4024;BME280;2026;51.002;13.668;2023-02-28T00:27:58;100312.78;;;0.54;85.56
4024;BME280;2026;51.002;13.668;2023-02-28T00:33:01;100304.09;;;0.43;86.19
4024;BME280;2026;51.002;13.668;2023-02-28T00:38:04;100310.91;;;0.44;86.11
4024;BME280;2026;51.002;13.668;2023-02-28T00:43:10;100304.66;;;0.36;86.10
4024;BME280;2026;51.002;13.668;2023-02-28T00:48:13;100309.81;;;0.36;85.96
4024;BME280;2026;51.002;13.668;2023-02-28T00:53:17;100306.28;;;0.37;85.94
4024;BME280;2026;51.002;13.668;2023-02-28T00:58:21;100298.56;;;0.37;85.96
4024;BME280;2026;51.002;13.668;2023-02-28T01:03:25;100298.56;;;0.37;85.87
4024;BME280;2026;51.002;13.668;2023-02-28T01:08:28;100304.91;;;0.33;86.16
4024;BME280;2026;51.002;13.668;2023-02-28T01:13:32;100300.88;;;0.17;86.40
4024;BME280;2026;51.002;13.668;2023-02-28T01:18:35;100303.69;;;0.25;86.32
4024;BME280;2026;51.002;13.668;2023-02-28T01:23:39;100299.13;;;0.29;86.12
4024;BME280;2026;51.002;13.668;2023-02-28T01:28:46;100297.13;;;0.21;86.45
4024;BME280;2026;51.002;13.668;2023-02-28T01:33:49;100290.81;;;0.25;86.16
4024;BME280;2026;51.002;13.668;2023-02-28T01:38:52;100286.78;;;0.21;86.41
4024;BME280;2026;51.002;13.668;2023-02-28T01:43:59;100289.13;;;0.13;86.66
4024;BME280;2026;51.002;13.668;2023-02-28T01:49:07;100292.44;;;0.26;86.26
4024;BME280;2026;51.002;13.668;2023-02-28T01:54:15;100283.97;;;0.13;85.94
4024;BME280;2026;51.002;13.668;2023-02-28T01:59:27;100289.91;;;0.02;86.46
4024;BME280;2026;51.002;13.668;2023-02-28T02:04:38;100286.72;;;-0.02;86.52
4024;BME280;2026;51.002;13.668;2023-02-28T02:09:42;100282.41;;;-0.01;85.78
4024;BME280;2026;51.002;13.668;2023-02-28T02:14:55;100285.72;;;0.12;85.37
4024;BME280;2026;51.002;13.668;2023-02-28T02:20:32;100285.56;;;-0.09;86.39
4024;BME280;2026;51.002;13.668;2023-02-28T02:25:42;100274.03;;;-0.16;87.04
4024;BME280;2026;51.002;13.668;2023-02-28T02:31:04;100279.84;;;-0.26;87.28
4024;BME280;2026;51.002;13.668;2023-02-28T02:36:13;100274.41;;;-0.09;86.49
4024;BME280;2026;51.002;13.668;2023-02-28T02:41:26;100269.69;;;-0.16;87.03
4024;BME280;2026;51.002;13.668;2023-02-28T02:46:33;100278.72;;;-0.10;86.75
4024;BME280;2026;51.002;13.668;2023-02-28T02:51:39;100283.19;;;-0.12;86.85
4024;BME280;2026;51.002;13.668;2023-02-28T02:56:45;100283.78;;;-0.08;86.60
4024;BME280;2026;51.002;13.668;2023-02-28T03:01:53;100281.88;;;-0.18;86.77
4024;BME280;2026;51.002;13.668;2023-02-28T03:06:58;100279.41;;;-0.19;86.42
4024;BME280;2026;51.002;13.668;2023-02-28T03:12:02;100286.94;;;-0.16;86.26
4024;BME280;2026;51.002;13.668;2023-02-28T03:17:18;100279.84;;;-0.26;86.27
4024;BME280;2026;51.002;13.668;2023-02-28T03:22:38;100281.25;;;-0.33;86.51
4024;BME280;2026;51.002;13.668;2023-02-28T03:27:53;100284.44;;;-0.42;86.08
4024;BME280;2026;51.002;13.668;2023-02-28T03:33:01;100276.28;;;-0.36;85.81
4024;BME280;2026;51.002;13.668;2023-02-28T03:38:11;100267.53;;;-0.33;85.70
4024;BME280;2026;51.002;13.668;2023-02-28T03:43:22;100282.34;;;-0.48;86.07
4024;BME280;2026;51.002;13.668;2023-02-28T03:48:32;100279.34;;;-0.55;85.93
4024;BME280;2026;51.002;13.668;2023-02-28T03:53:42;100284.72;;;-0.58;85.41
4024;BME280;2026;51.002;13.668;2023-02-28T03:58:49;100293.22;;;-0.69;86.13
4024;BME280;2026;51.002;13.668;2023-02-28T04:03:56;100293.97;;;-0.80;86.14
4024;BME280;2026;51.002;13.668;2023-02-28T04:09:00;100299.22;;;-0.82;85.96
4024;BME280;2026;51.002;13.668;2023-02-28T04:14:05;100299.47;;;-0.98;86.08
4024;BME280;2026;51.002;13.668;2023-02-28T04:19:10;100305.84;;;-1.03;86.29
4024;BME280;2026;51.002;13.668;2023-02-28T04:24:17;100308.00;;;-1.10;85.97
4024;BME280;2026;51.002;13.668;2023-02-28T04:29:22;100314.72;;;-1.33;86.63
4024;BME280;2026;51.002;13.668;2023-02-28T04:34:26;100314.72;;;-1.33;86.88
4024;BME280;2026;51.002;13.668;2023-02-28T04:39:35;100317.41;;;-1.48;87.08
4024;BME280;2026;51.002;13.668;2023-02-28T04:44:38;100317.41;;;-1.48;86.12
4024;BME280;2026;51.002;13.668;2023-02-28T04:49:41;100319.66;;;-1.56;86.11
4024;BME280;2026;51.002;13.668;2023-02-28T04:54:45;100315.84;;;-1.51;85.79
4024;BME280;2026;51.002;13.668;2023-02-28T04:59:48;100325.28;;;-1.77;86.26
4024;BME280;2026;51.002;13.668;2023-02-28T05:04:51;100326.41;;;-1.81;85.99
4024;BME280;2026;51.002;13.668;2023-02-28T05:09:56;100324.94;;;-1.85;85.92
4024;BME280;2026;51.002;13.668;2023-02-28T05:14:59;100333.44;;;-1.98;86.74
4024;BME280;2026;51.002;13.668;2023-02-28T05:20:04;100333.84;;;-2.04;86.81
4024;BME280;2026;51.002;13.668;2023-02-28T05:25:19;100332.34;;;-1.94;85.68
4024;BME280;2026;51.002;13.668;2023-02-28T05:30:23;100331.63;;;-1.96;85.85
4024;BME280;2026;51.002;13.668;2023-02-28T05:35:26;100331.97;;;-2.15;86.24
4024;BME280;2026;51.002;13.668;2023-02-28T05:40:30;100333.94;;;-2.06;86.29
4024;BME280;2026;51.002;13.668;2023-02-28T05:45:33;100336.41;;;-2.04;85.71
4024;BME280;2026;51.002;13.668;2023-02-28T05:50:36;100328.75;;;-2.19;86.08
4024;BME280;2026;51.002;13.668;2023-02-28T05:55:41;100338.38;;;-2.50;87.04
4024;BME280;2026;51.002;13.668;2023-02-28T06:00:44;100342.59;;;-2.49;86.75
4024;BME280;2026;51.002;13.668;2023-02-28T06:05:47;100346.66;;;-2.59;87.03
4024;BME280;2026;51.002;13.668;2023-02-28T06:10:51;100353.38;;;-2.29;86.18
4024;BME280;2026;51.002;13.668;2023-02-28T06:15:54;100358.47;;;-2.14;85.20
4024;BME280;2026;51.002;13.668;2023-02-28T06:20:57;100357.94;;;-2.20;85.63
4024;BME280;2026;51.002;13.668;2023-02-28T06:26:01;100369.75;;;-2.17;84.42
4024;BME280;2026;51.002;13.668;2023-02-28T06:31:08;100372.31;;;-2.17;84.98
4024;BME280;2026;51.002;13.668;2023-02-28T06:36:13;100380.19;;;-2.06;84.63
4024;BME280;2026;51.002;13.668;2023-02-28T06:41:18;100393.44;;;-1.84;83.95
4024;BME280;2026;51.002;13.668;2023-02-28T06:46:21;100393.09;;;-1.52;83.67
4024;BME280;2026;51.002;13.668;2023-02-28T06:51:24;100399.63;;;-1.33;83.35
4024;BME280;2026;51.002;13.668;2023-02-28T06:56:30;100405.50;;;-1.18;83.13
4024;BME280;2026;51.002;13.668;2023-02-28T07:01:33;100409.50;;;-0.62;81.72
4024;BME280;2026;51.002;13.668;2023-02-28T07:06:36;100412.69;;;-0.33;80.61
4024;BME280;2026;51.002;13.668;2023-02-28T07:11:41;100412.78;;;-0.10;80.54
4024;BME280;2026;51.002;13.668;2023-02-28T07:16:44;100423.63;;;-0.68;82.25
4024;BME280;2026;51.002;13.668;2023-02-28T07:21:47;100426.72;;;-0.76;83.33
4024;BME280;2026;51.002;13.668;2023-02-28T07:26:52;100426.53;;;-0.73;84.55
4024;BME280;2026;51.002;13.668;2023-02-28T07:31:55;100424.34;;;-0.66;84.03
4024;BME280;2026;51.002;13.668;2023-02-28T07:36:58;100420.03;;;-0.15;83.68
4024;BME280;2026;51.002;13.668;2023-02-28T07:42:05;100422.69;;;0.81;81.06
4024;BME280;2026;51.002;13.668;2023-02-28T07:47:11;100427.38;;;-0.22;82.30
4024;BME280;2026;51.002;13.668;2023-02-28T07:52:14;100427.97;;;-0.05;82.53
4024;BME280;2026;51.002;13.668;2023-02-28T07:57:18;100415.09;;;1.13;80.37
4024;BME280;2026;51.002;13.668;2023-02-28T08:02:21;100418.13;;;1.76;77.33
4024;BME280;2026;51.002;13.668;2023-02-28T08:07:24;100427.88;;;2.28;77.16
4024;BME280;2026;51.002;13.668;2023-02-28T08:12:28;100421.50;;;1.88;76.85
4024;BME280;2026;51.002;13.668;2023-02-28T08:17:31;100421.59;;;2.63;75.05
4024;BME280;2026;51.002;13.668;2023-02-28T08:22:36;100419.53;;;2.57;74.49
4024;BME280;2026;51.002;13.668;2023-02-28T08:27:40;100424.06;;;2.32;66.27
4024;BME280;2026;51.002;13.668;2023-02-28T08:32:43;100434.88;;;2.37;66.17
4024;BME280;2026;51.002;13.668;2023-02-28T08:37:47;100429.72;;;2.58;64.91
4024;BME280;2026;51.002;13.668;2023-02-28T08:42:51;100425.19;;;1.51;67.38
4024;BME280;2026;51.002;13.668;2023-02-28T08:47:55;100433.84;;;1.84;68.08
4024;BME280;2026;51.002;13.668;2023-02-28T08:52:58;100438.56;;;1.90;65.57
4024;BME280;2026;51.002;13.668;2023-02-28T08:58:02;100428.63;;;2.18;65.36
4024;BME280;2026;51.002;13.668;2023-02-28T09:03:05;100425.84;;;2.31;64.01
4024;BME280;2026;51.002;13.668;2023-02-28T09:08:10;100423.56;;;2.05;63.14
4024;BME280;2026;51.002;13.668;2023-02-28T09:13:17;100424.75;;;2.45;62.67
4024;BME280;2026;51.002;13.668;2023-02-28T09:18:20;100424.25;;;2.52;62.52
4024;BME280;2026;51.002;13.668;2023-02-28T09:23:24;100433.25;;;2.36;61.71
4024;BME280;2026;51.002;13.668;2023-02-28T09:28:29;100427.91;;;3.13;60.19
4024;BME280;2026;51.002;13.668;2023-02-28T09:33:31;100423.75;;;1.81;61.89
4024;BME280;2026;51.002;13.668;2023-02-28T09:38:35;100419.13;;;2.83;58.68
4024;BME280;2026;51.002;13.668;2023-02-28T09:43:43;100416.78;;;2.80;59.11
4024;BME280;2026;51.002;13.668;2023-02-28T09:48:48;100421.59;;;2.63;57.62
4024;BME280;2026;51.002;13.668;2023-02-28T09:53:53;100416.47;;;2.94;58.12
4024;BME280;2026;51.002;13.668;2023-02-28T09:59:07;100413.78;;;3.68;56.76
4024;BME280;2026;51.002;13.668;2023-02-28T10:04:17;100416.97;;;3.91;56.39
4024;BME280;2026;51.002;13.668;2023-02-28T10:09:30;100418.72;;;3.40;57.32
4024;BME280;2026;51.002;13.668;2023-02-28T10:14:45;100412.06;;;4.18;55.08
4024;BME280;2026;51.002;13.668;2023-02-28T10:19:56;100410.09;;;3.70;53.53
4024;BME280;2026;51.002;13.668;2023-02-28T10:25:05;100415.59;;;1.97;59.52
4024;BME280;2026;51.002;13.668;2023-02-28T10:30:20;100419.34;;;2.37;58.64
4024;BME280;2026;51.002;13.668;2023-02-28T10:35:25;100422.66;;;1.95;58.16
4024;BME280;2026;51.002;13.668;2023-02-28T10:40:32;100425.16;;;1.85;58.39
4024;BME280;2026;51.002;13.668;2023-02-28T10:45:36;100418.75;;;2.12;60.09
4024;BME280;2026;51.002;13.668;2023-02-28T10:50:43;100413.31;;;2.69;57.98
4024;BME280;2026;51.002;13.668;2023-02-28T10:55:56;100416.88;;;1.36;59.13
4024;BME280;2026;51.002;13.668;2023-02-28T11:01:01;100413.59;;;2.33;60.22
4024;BME280;2026;51.002;13.668;2023-02-28T11:06:06;100400.19;;;3.03;56.97
4024;BME280;2026;51.002;13.668;2023-02-28T11:11:10;100401.03;;;3.45;56.39
4024;BME280;2026;51.002;13.668;2023-02-28T11:16:15;100395.16;;;3.12;56.38
4024;BME280;2026;51.002;13.668;2023-02-28T11:21:25;100388.53;;;2.98;57.50
4024;BME280;2026;51.002;13.668;2023-02-28T11:26:38;100383.75;;;2.72;56.86
4024;BME280;2026;51.002;13.668;2023-02-28T11:31:43;100384.94;;;1.92;57.56
4024;BME280;2026;51.002;13.668;2023-02-28T11:36:48;100378.06;;;2.35;58.21
4024;BME280;2026;51.002;13.668;2023-02-28T11:42:04;100380.03;;;2.43;60.25
4024;BME280;2026;51.002;13.668;2023-02-28T11:47:17;100367.34;;;2.83;57.42
4024;BME280;2026;51.002;13.668;2023-02-28T11:52:36;100372.09;;;3.09;56.15
4024;BME280;2026;51.002;13.668;2023-02-28T12:03:33;100354.34;;;3.45;56.18
4024;BME280;2026;51.002;13.668;2023-02-28T12:08:47;100347.03;;;3.70;54.38
4024;BME280;2026;51.002;13.668;2023-02-28T12:13:58;100356.13;;;2.82;56.94
4024;BME280;2026;51.002;13.668;2023-02-28T12:19:15;100349.09;;;2.94;56.30
4024;BME280;2026;51.002;13.668;2023-02-28T12:24:33;100355.69;;;3.39;54.96
4024;BME280;2026;51.002;13.668;2023-02-28T12:29:47;100361.38;;;3.23;53.77
4024;BME280;2026;51.002;13.668;2023-02-28T12:34:56;100356.06;;;3.25;54.48
4024;BME280;2026;51.002;13.668;2023-02-28T12:40:04;100351.22;;;3.10;56.12
4024;BME280;2026;51.002;13.668;2023-02-28T12:45:11;100343.16;;;3.54;55.03
4024;BME280;2026;51.002;13.668;2023-02-28T12:50:19;100339.63;;;3.55;53.85
4024;BME280;2026;51.002;13.668;2023-02-28T12:55:28;100341.09;;;3.07;54.10
4024;BME280;2026;51.002;13.668;2023-02-28T13:00:36;100333.56;;;2.94;55.68
4024;BME280;2026;51.002;13.668;2023-02-28T13:06:00;100339.38;;;3.58;54.72
4024;BME280;2026;51.002;13.668;2023-02-28T13:11:23;100324.38;;;3.62;54.06
4024;BME280;2026;51.002;13.668;2023-02-28T13:16:27;100337.69;;;3.38;53.90
4024;BME280;2026;51.002;13.668;2023-02-28T13:21:41;100342.78;;;3.18;54.61
4024;BME280;2026;51.002;13.668;2023-02-28T13:32:35;100331.09;;;3.33;55.07
4024;BME280;2026;51.002;13.668;2023-02-28T13:37:44;100334.13;;;3.39;54.29
4024;BME280;2026;51.002;13.668;2023-02-28T13:42:48;100331.09;;;3.33;53.59
4024;BME280;2026;51.002;13.668;2023-02-28T13:47:54;100325.53;;;3.28;53.49
4024;BME280;2026;51.002;13.668;2023-02-28T13:53:23;100317.09;;;3.46;54.83
4024;BME280;2026;51.002;13.668;2023-02-28T13:58:45;100316.94;;;3.38;55.79
4024;BME280;2026;51.002;13.668;2023-02-28T14:04:18;100312.16;;;3.33;55.10
4024;BME280;2026;51.002;13.668;2023-02-28T14:09:31;100310.81;;;3.49;55.08
4024;BME280;2026;51.002;13.668;2023-02-28T14:14:55;100319.75;;;2.84;56.71
4024;BME280;2026;51.002;13.668;2023-02-28T14:19:59;100312.16;;;2.61;56.88
4024;BME280;2026;51.002;13.668;2023-02-28T14:25:22;100307.28;;;2.46;57.47
4024;BME280;2026;51.002;13.668;2023-02-28T14:36:18;100297.31;;;3.55;53.61
4024;BME280;2026;51.002;13.668;2023-02-28T14:41:30;100290.25;;;2.65;56.48
4024;BME280;2026;51.002;13.668;2023-02-28T14:46:37;100293.38;;;3.10;55.97
4024;BME280;2026;51.002;13.668;2023-02-28T14:51:40;100286.19;;;2.82;56.79
4024;BME280;2026;51.002;13.668;2023-02-28T14:56:49;100284.59;;;2.91;56.50
4024;BME280;2026;51.002;13.668;2023-02-28T15:02:17;100295.31;;;3.08;56.06
4024;BME280;2026;51.002;13.668;2023-02-28T15:07:20;100292.03;;;3.05;56.74
4024;BME280;2026;51.002;13.668;2023-02-28T15:12:31;100294.19;;;3.00;58.23
4024;BME280;2026;51.002;13.668;2023-02-28T15:17:34;100302.13;;;2.77;57.00
4024;BME280;2026;51.002;13.668;2023-02-28T15:22:38;100294.38;;;2.77;55.85
4024;BME280;2026;51.002;13.668;2023-02-28T15:27:45;100300.22;;;2.70;58.99
4024;BME280;2026;51.002;13.668;2023-02-28T15:33:03;100295.09;;;2.58;57.85
4024;BME280;2026;51.002;13.668;2023-02-28T15:38:15;100291.38;;;2.72;57.33
4024;BME280;2026;51.002;13.668;2023-02-28T15:43:24;100292.50;;;2.58;58.34
4024;BME280;2026;51.002;13.668;2023-02-28T15:48:30;100302.47;;;2.63;58.19
4024;BME280;2026;51.002;13.668;2023-02-28T15:53:36;100313.06;;;2.29;58.97
4024;BME280;2026;51.002;13.668;2023-02-28T15:58:41;100306.59;;;2.44;59.07
4024;BME280;2026;51.002;13.668;2023-02-28T16:03:47;100304.78;;;2.35;59.32
4024;BME280;2026;51.002;13.668;2023-02-28T16:08:51;100309.97;;;2.35;59.63
4024;BME280;2026;51.002;13.668;2023-02-28T16:13:56;100302.97;;;2.26;61.24
4024;BME280;2026;51.002;13.668;2023-02-28T16:18:59;100295.06;;;2.27;61.98
4024;BME280;2026;51.002;13.668;2023-02-28T16:24:02;100305.78;;;2.22;62.27
4024;BME280;2026;51.002;13.668;2023-02-28T16:29:08;100302.50;;;1.99;64.34
4024;BME280;2026;51.002;13.668;2023-02-28T16:34:12;100297.25;;;1.89;64.74
4024;BME280;2026;51.002;13.668;2023-02-28T16:39:15;100301.16;;;1.84;64.93
4024;BME280;2026;51.002;13.668;2023-02-28T16:44:26;100304.44;;;1.74;66.35
4024;BME280;2026;51.002;13.668;2023-02-28T16:49:30;100306.25;;;1.62;66.96
4024;BME280;2026;51.002;13.668;2023-02-28T16:54:33;100307.94;;;1.52;67.37
4024;BME280;2026;51.002;13.668;2023-02-28T16:59:37;100315.94;;;1.37;67.83
4024;BME280;2026;51.002;13.668;2023-02-28T17:04:40;100307.75;;;1.32;67.95
4024;BME280;2026;51.002;13.668;2023-02-28T17:09:43;100313.19;;;1.18;68.51
4024;BME280;2026;51.002;13.668;2023-02-28T17:14:48;100318.69;;;1.13;69.06
4024;BME280;2026;51.002;13.668;2023-02-28T17:19:51;100309.19;;;1.02;69.30
4024;BME280;2026;51.002;13.668;2023-02-28T17:24:54;100321.63;;;0.97;69.57
4024;BME280;2026;51.002;13.668;2023-02-28T17:30:00;100323.50;;;0.83;70.29
4024;BME280;2026;51.002;13.668;2023-02-28T17:35:05;100322.00;;;0.81;70.62
4024;BME280;2026;51.002;13.668;2023-02-28T17:40:14;100324.16;;;0.51;71.67
4024;BME280;2026;51.002;13.668;2023-02-28T17:45:19;100314.88;;;0.37;72.21
4024;BME280;2026;51.002;13.668;2023-02-28T17:50:22;100322.53;;;0.50;72.23
4024;BME280;2026;51.002;13.668;2023-02-28T17:55:25;100314.06;;;0.48;72.23
4024;BME280;2026;51.002;13.668;2023-02-28T18:00:30;100315.22;;;0.44;72.33
4024;BME280;2026;51.002;13.668;2023-02-28T18:05:35;100306.44;;;0.35;72.52
4024;BME280;2026;51.002;13.668;2023-02-28T18:10:38;100301.22;;;0.24;74.43
4024;BME280;2026;51.002;13.668;2023-02-28T18:15:43;100297.97;;;-0.03;76.01
4024;BME280;2026;51.002;13.668;2023-02-28T18:20:45;100303.41;;;0.06;74.77
4024;BME280;2026;51.002;13.668;2023-02-28T18:25:50;100303.19;;;0.09;74.78
4024;BME280;2026;51.002;13.668;2023-02-28T18:30:54;100311.13;;;0.06;75.24
4024;BME280;2026;51.002;13.668;2023-02-28T18:35:57;100303.63;;;0.02;75.17
4024;BME280;2026;51.002;13.668;2023-02-28T18:41:03;100311.81;;;-0.04;75.54
4024;BME280;2026;51.002;13.668;2023-02-28T18:46:09;100305.00;;;-0.05;75.37
4024;BME280;2026;51.002;13.668;2023-02-28T18:51:15;100306.63;;;-0.15;76.08
4024;BME280;2026;51.002;13.668;2023-02-28T18:56:20;100318.19;;;-0.21;76.48
4024;BME280;2026;51.002;13.668;2023-02-28T19:01:26;100299.66;;;-0.26;76.88
4024;BME280;2026;51.002;13.668;2023-02-28T19:06:32;100300.16;;;-0.21;76.60
4024;BME280;2026;51.002;13.668;2023-02-28T19:11:35;100306.00;;;-0.43;77.27
4024;BME280;2026;51.002;13.668;2023-02-28T19:16:39;100311.81;;;-0.53;77.42
4024;BME280;2026;51.002;13.668;2023-02-28T19:21:43;100317.06;;;-0.54;78.16
4024;BME280;2026;51.002;13.668;2023-02-28T19:26:46;100314.00;;;-0.59;77.94
4024;BME280;2026;51.002;13.668;2023-02-28T19:31:50;100316.91;;;-0.64;77.72
4024;BME280;2026;51.002;13.668;2023-02-28T19:36:54;100315.19;;;-0.76;77.95
4024;BME280;2026;51.002;13.668;2023-02-28T19:41:57;100312.00;;;-0.93;79.12
4024;BME280;2026;51.002;13.668;2023-02-28T19:47:02;100312.81;;;-0.80;78.44
4024;BME280;2026;51.002;13.668;2023-02-28T19:52:05;100312.00;;;-0.93;78.71
4024;BME280;2026;51.002;13.668;2023-02-28T19:57:15;100314.47;;;-0.91;79.98
4024;BME280;2026;51.002;13.668;2023-02-28T20:02:21;100317.69;;;-1.01;79.91
4024;BME280;2026;51.002;13.668;2023-02-28T20:07:24;100322.41;;;-0.95;78.81
4024;BME280;2026;51.002;13.668;2023-02-28T20:12:27;100330.44;;;-0.99;78.58
4024;BME280;2026;51.002;13.668;2023-02-28T20:17:32;100329.00;;;-1.03;79.34
4024;BME280;2026;51.002;13.668;2023-02-28T20:22:35;100332.94;;;-1.11;79.36
4024;BME280;2026;51.002;13.668;2023-02-28T20:27:39;100326.13;;;-1.12;80.28
4024;BME280;2026;51.002;13.668;2023-02-28T20:32:43;100324.69;;;-1.16;80.14
4024;BME280;2026;51.002;13.668;2023-02-28T20:37:46;100327.91;;;-1.25;80.89
4024;BME280;2026;51.002;13.668;2023-02-28T20:42:50;100326.75;;;-1.21;81.10
4024;BME280;2026;51.002;13.668;2023-02-28T20:47:54;100331.38;;;-1.39;82.16
4024;BME280;2026;51.002;13.668;2023-02-28T20:52:57;100333.06;;;-1.38;81.37
4024;BME280;2026;51.002;13.668;2023-02-28T20:58:00;100325.81;;;-1.59;82.08
4024;BME280;2026;51.002;13.668;2023-02-28T21:03:04;100330.66;;;-1.41;81.93
4024;BME280;2026;51.002;13.668;2023-02-28T21:08:08;100329.31;;;-1.47;81.65
4024;BME280;2026;51.002;13.668;2023-02-28T21:13:10;100327.88;;;-1.51;81.44
4024;BME280;2026;51.002;13.668;2023-02-28T21:18:15;100326.84;;;-1.62;81.33
4024;BME280;2026;51.002;13.668;2023-02-28T21:23:18;100338.22;;;-1.79;81.99
4024;BME280;2026;51.002;13.668;2023-02-28T21:28:21;100328.38;;;-1.72;81.26
4024;BME280;2026;51.002;13.668;2023-02-28T21:33:25;100328.41;;;-2.27;84.30
4024;BME280;2026;51.002;13.668;2023-02-28T21:38:28;100325.34;;;-1.92;82.91
4024;BME280;2026;51.002;13.668;2023-02-28T21:43:31;100331.19;;;-1.90;83.23
4024;BME280;2026;51.002;13.668;2023-02-28T21:48:36;100339.50;;;-1.99;83.06
4024;BME280;2026;51.002;13.668;2023-02-28T21:53:40;100328.88;;;-2.07;82.99
4024;BME280;2026;51.002;13.668;2023-02-28T21:58:43;100332.72;;;-2.00;83.28
4024;BME280;2026;51.002;13.668;2023-02-28T22:03:48;100327.84;;;-2.18;83.32
4024;BME280;2026;51.002;13.668;2023-02-28T22:08:53;100339.25;;;-2.36;83.66
4024;BME280;2026;51.002;13.668;2023-02-28T22:13:56;100322.94;;;-2.35;83.33
4024;BME280;2026;51.002;13.668;2023-02-28T22:19:01;100320.16;;;-2.32;83.18
4024;BME280;2026;51.002;13.668;2023-02-28T22:24:07;100333.38;;;-2.38;83.39
4024;BME280;2026;51.002;13.668;2023-02-28T22:29:10;100326.59;;;-2.39;83.14
4024;BME280;2026;51.002;13.668;2023-02-28T22:34:15;100330.94;;;-2.40;82.81
4024;BME280;2026;51.002;13.668;2023-02-28T22:39:18;100322.06;;;-2.49;83.53
4024;BME280;2026;51.002;13.668;2023-02-28T22:44:22;100320.34;;;-2.63;84.06
4024;BME280;2026;51.002;13.668;2023-02-28T22:49:26;100324.00;;;-2.67;84.04
4024;BME280;2026;51.002;13.668;2023-02-28T22:54:29;100324.22;;;-2.70;84.08
4024;BME280;2026;51.002;13.668;2023-02-28T22:59:32;100334.56;;;-2.72;83.82
4024;BME280;2026;51.002;13.668;2023-02-28T23:04:36;100336.94;;;-2.68;84.13
4024;BME280;2026;51.002;13.668;2023-02-28T23:09:40;100330.72;;;-2.79;83.71
4024;BME280;2026;51.002;13.668;2023-02-28T23:14:43;100332.56;;;-2.81;84.38
4024;BME280;2026;51.002;13.668;2023-02-28T23:19:47;100333.69;;;-3.14;86.42
4024;BME280;2026;51.002;13.668;2023-02-28T23:24:50;100337.50;;;-3.07;86.80
4024;BME280;2026;51.002;13.668;2023-02-28T23:29:55;100336.78;;;-2.94;84.84
4024;BME280;2026;51.002;13.668;2023-02-28T23:34:59;100339.91;;;-3.04;85.36
4024;BME280;2026;51.002;13.668;2023-02-28T23:40:05;100338.97;;;-3.03;84.95
4024;BME280;2026;51.002;13.668;2023-02-28T23:45:09;100350.84;;;-3.31;86.24
4024;BME280;2026;51.002;13.668;2023-02-28T23:50:15;100344.81;;;-3.15;85.10
4024;BME280;2026;51.002;13.668;2023-02-28T23:55:18;100347.78;;;-3.21;85.89
